Lily Dale, New York
Current Conditions -  °F | °C
As of 11:03 PM on Wednesday 17 Dec 2014 (Local Time) from KDKK Reporting Station
Overcast Overcast  
Wind Chill: 22°   Ceiling: 3000
Heat Index: 32°   Visibility: 9mi
Dew Point: 24°   Wind: 15mph
Humidity: 73%   Direction: 280°W
Pressure: 30.04"   Gusts: NA
Location:  42.35°N, 79.32°W
Report Text: KDKK 180403Z AUTO 28013KT 9SM FEW023 OVC030 00/M04 A3004 RMK AO2 SNE0358 P0000 T00001044
Loading
Personal Weather Stations






























Interactive Weather Map New forecast layout! Learn more

10-Day Weather Forecast

Advertisements
Track Severe Weather on mobile